createdAt,value
2023-03-17T00:01:24.928Z,2.45
2023-03-17T00:03:52.862Z,2.38
2023-03-17T00:06:29.153Z,3.00
2023-03-17T00:08:57.545Z,2.70
2023-03-17T00:11:28.619Z,2.60
2023-03-17T00:13:56.662Z,2.97
2023-03-17T00:16:27.062Z,2.58
2023-03-17T00:18:56.730Z,2.13
2023-03-17T00:21:28.185Z,2.28
2023-03-17T00:23:56.993Z,2.45
2023-03-17T00:26:26.856Z,2.55
2023-03-17T00:28:57.250Z,2.70
2023-03-17T00:31:29.352Z,2.40
2023-03-17T00:33:58.537Z,2.13
2023-03-17T00:36:29.422Z,2.20
2023-03-17T00:38:58.390Z,2.53
2023-03-17T00:41:29.472Z,2.67
2023-03-17T00:43:57.639Z,2.50
2023-03-17T00:46:28.719Z,2.00
2023-03-17T00:51:25.891Z,2.22
2023-03-17T00:53:55.763Z,2.78
2023-03-17T00:56:23.713Z,2.35
2023-03-17T00:58:53.058Z,2.50
2023-03-17T01:01:20.929Z,1.90
2023-03-17T01:03:49.063Z,2.22
2023-03-17T01:06:17.922Z,2.30
2023-03-17T01:08:46.507Z,2.53
2023-03-17T01:11:18.710Z,2.03
2023-03-17T01:13:48.537Z,2.97
2023-03-17T01:16:18.027Z,2.30
2023-03-17T01:18:46.164Z,2.50
2023-03-17T01:21:14.081Z,2.72
2023-03-17T01:23:43.594Z,2.75
2023-03-17T01:26:11.706Z,2.15
2023-03-17T01:28:39.577Z,2.33
2023-03-17T01:31:07.327Z,2.83
2023-03-17T01:33:36.640Z,2.38
2023-03-17T01:36:04.511Z,2.97
2023-03-17T01:38:32.553Z,2.53
2023-03-17T01:41:02.033Z,3.10
2023-03-17T01:43:31.046Z,2.50
2023-03-17T01:46:21.861Z,2.83
2023-03-17T01:48:58.700Z,2.83
2023-03-17T01:51:32.957Z,3.13
2023-03-17T01:54:03.508Z,2.60
2023-03-17T01:56:32.019Z,2.65
2023-03-17T01:59:03.840Z,2.83
2023-03-17T02:01:38.622Z,2.77
2023-03-17T02:04:09.557Z,2.63
2023-03-17T02:06:47.483Z,2.30
2023-03-17T02:09:23.154Z,2.83
2023-03-17T02:11:51.659Z,3.00
2023-03-17T02:14:20.516Z,2.50
2023-03-17T02:16:48.535Z,2.63
2023-03-17T02:19:18.677Z,3.08
2023-03-17T02:21:51.363Z,2.78
2023-03-17T02:26:56.493Z,2.65
2023-03-17T02:29:24.702Z,2.58
2023-03-17T02:31:52.605Z,2.80
2023-03-17T02:34:22.330Z,2.45
2023-03-17T02:36:51.508Z,2.72
2023-03-17T02:39:19.419Z,2.65
2023-03-17T02:41:47.987Z,2.20
2023-03-17T02:44:16.127Z,2.50
2023-03-17T02:46:44.014Z,2.65
2023-03-17T02:49:12.859Z,2.65
2023-03-17T02:51:40.908Z,2.70
2023-03-17T02:54:10.159Z,2.60
2023-03-17T02:56:38.256Z,3.00
2023-03-17T02:59:07.211Z,2.42
2023-03-17T03:01:35.587Z,2.53
2023-03-17T03:04:03.898Z,2.67
2023-03-17T03:06:32.743Z,2.38
2023-03-17T03:09:00.519Z,2.83
2023-03-17T03:11:29.657Z,3.05
2023-03-17T03:13:57.495Z,2.40
2023-03-17T03:16:25.798Z,2.78
2023-03-17T03:18:53.531Z,3.55
2023-03-17T03:21:22.089Z,7.47
2023-03-17T03:23:50.418Z,5.55
2023-03-17T03:26:18.226Z,4.65
2023-03-17T03:28:47.450Z,3.63
2023-03-17T03:31:15.376Z,2.83
2023-03-17T03:33:44.091Z,2.75
2023-03-17T03:36:13.366Z,2.85
2023-03-17T03:38:41.628Z,2.17
2023-03-17T03:41:09.493Z,2.72
2023-03-17T03:43:37.523Z,2.60
2023-03-17T03:46:06.729Z,2.45
2023-03-17T03:48:35.053Z,2.38
2023-03-17T03:51:04.052Z,2.30
2023-03-17T03:53:32.239Z,2.65
2023-03-17T03:56:00.061Z,2.40
2023-03-17T03:58:27.990Z,2.80
2023-03-17T04:00:55.745Z,2.58
2023-03-17T04:03:25.182Z,2.30
2023-03-17T04:05:53.035Z,2.20
2023-03-17T04:08:20.921Z,2.58
2023-03-17T04:10:48.802Z,2.80
2023-03-17T04:13:16.603Z,2.47
2023-03-17T04:15:44.398Z,2.90
2023-03-17T04:18:13.027Z,2.47
2023-03-17T04:20:42.395Z,2.50
2023-03-17T04:23:10.112Z,2.80
2023-03-17T04:25:38.067Z,2.45
2023-03-17T04:28:06.453Z,2.58
2023-03-17T04:30:34.479Z,2.33
2023-03-17T04:33:02.420Z,2.55
2023-03-17T04:35:31.373Z,2.88
2023-03-17T04:38:00.493Z,2.17
2023-03-17T04:40:28.695Z,2.30
2023-03-17T04:42:56.553Z,3.25
2023-03-17T04:45:24.560Z,2.38
2023-03-17T04:47:52.416Z,2.20
2023-03-17T04:50:20.365Z,2.25
2023-03-17T04:52:48.235Z,2.15
2023-03-17T04:55:17.568Z,2.67
2023-03-17T04:57:45.893Z,2.05
2023-03-17T05:00:15.561Z,2.15
2023-03-17T05:02:44.100Z,1.92
2023-03-17T05:05:12.253Z,1.95
2023-03-17T05:07:40.377Z,2.30
2023-03-17T05:10:09.408Z,2.95
2023-03-17T05:12:38.842Z,2.20
2023-03-17T05:15:07.758Z,2.35
2023-03-17T05:17:35.600Z,1.90
2023-03-17T05:20:04.251Z,2.20
2023-03-17T05:22:32.052Z,1.80
2023-03-17T05:24:59.855Z,2.17
2023-03-17T05:27:27.683Z,2.30
2023-03-17T05:29:57.254Z,1.92
2023-03-17T05:32:25.774Z,2.50
2023-03-17T05:34:53.677Z,2.55
2023-03-17T05:37:21.592Z,2.50
2023-03-17T05:39:49.651Z,2.35
2023-03-17T05:42:17.450Z,2.25
2023-03-17T05:44:45.268Z,2.40
2023-03-17T05:47:14.692Z,2.20
2023-03-17T05:49:42.492Z,2.10
2023-03-17T05:52:10.872Z,2.70
2023-03-17T05:54:38.633Z,2.40
2023-03-17T05:57:06.595Z,2.72
2023-03-17T05:59:34.907Z,2.50
2023-03-17T06:02:03.112Z,2.85
2023-03-17T06:04:32.850Z,2.58
2023-03-17T06:07:00.701Z,2.20
2023-03-17T06:09:28.472Z,2.40
2023-03-17T06:11:56.257Z,2.45
2023-03-17T06:14:26.997Z,2.92
2023-03-17T06:16:55.557Z,2.03
2023-03-17T06:19:23.645Z,2.17
2023-03-17T06:21:53.274Z,2.38
2023-03-17T06:24:21.142Z,2.33
2023-03-17T06:26:49.016Z,3.03
2023-03-17T06:29:16.840Z,2.13
2023-03-17T06:31:50.461Z,2.53
2023-03-17T06:34:18.673Z,2.25
2023-03-17T06:36:46.577Z,1.95
2023-03-17T06:39:16.714Z,2.92
2023-03-17T06:41:44.638Z,2.10
2023-03-17T06:44:13.144Z,2.67
2023-03-17T06:46:41.006Z,2.35
2023-03-17T06:49:09.362Z,2.50
2023-03-17T06:51:37.386Z,2.30
2023-03-17T06:54:05.143Z,1.80
2023-03-17T06:56:34.351Z,2.47
2023-03-17T06:59:02.196Z,2.38
2023-03-17T07:01:30.039Z,1.90
2023-03-17T07:03:57.845Z,2.33
2023-03-17T07:06:25.744Z,2.08
2023-03-17T07:08:53.649Z,2.10
2023-03-17T07:11:23.517Z,1.63
2023-03-17T07:13:53.160Z,1.70
2023-03-17T07:16:21.260Z,1.75
2023-03-17T07:18:49.726Z,1.45
2023-03-17T07:21:17.632Z,5.78
2023-03-17T07:23:45.444Z,2.40
2023-03-17T07:26:13.312Z,2.13
2023-03-17T07:28:41.249Z,1.88
2023-03-17T07:31:14.116Z,1.50
2023-03-17T07:33:42.540Z,1.77
2023-03-17T07:36:10.565Z,1.70
2023-03-17T07:38:38.543Z,1.63
2023-03-17T07:41:09.859Z,1.50
2023-03-17T07:43:39.231Z,1.40
2023-03-17T07:46:07.448Z,1.80
2023-03-17T07:48:40.830Z,1.85
2023-03-17T07:51:13.707Z,1.80
2023-03-17T07:56:10.270Z,1.70
2023-03-17T07:58:38.295Z,1.70
2023-03-17T08:01:06.934Z,1.73
2023-03-17T08:03:37.683Z,2.00
2023-03-17T08:06:08.650Z,1.50
2023-03-17T08:08:36.951Z,1.88
2023-03-17T08:11:06.277Z,1.58
2023-03-17T08:13:34.645Z,1.67
2023-03-17T08:16:02.700Z,1.98
2023-03-17T08:18:30.934Z,2.42
2023-03-17T08:21:00.199Z,2.00
2023-03-17T08:23:28.013Z,2.03
2023-03-17T08:25:58.106Z,1.38
2023-03-17T08:28:27.135Z,1.70
2023-03-17T08:30:55.809Z,1.50
2023-03-17T08:33:23.789Z,1.50
2023-03-17T08:35:52.154Z,1.88
2023-03-17T08:38:21.299Z,1.80
2023-03-17T08:40:50.500Z,1.77
2023-03-17T08:43:18.713Z,1.98
2023-03-17T08:45:46.610Z,1.45
2023-03-17T08:48:15.341Z,1.55
2023-03-17T08:50:43.336Z,1.70
2023-03-17T08:53:11.908Z,1.80
2023-03-17T08:55:41.249Z,1.77
2023-03-17T08:58:09.409Z,1.80
2023-03-17T09:00:37.417Z,1.65
2023-03-17T09:03:05.806Z,2.30
2023-03-17T09:05:36.211Z,2.00
2023-03-17T09:08:05.691Z,1.60
2023-03-17T09:10:33.955Z,1.65
2023-03-17T09:13:04.628Z,1.60
2023-03-17T09:15:33.918Z,1.88
2023-03-17T09:18:03.197Z,2.10
2023-03-17T09:20:31.620Z,1.60
2023-03-17T09:23:00.351Z,1.70
2023-03-17T09:25:28.540Z,1.88
2023-03-17T09:27:56.612Z,1.60
2023-03-17T09:30:26.955Z,1.45
2023-03-17T09:32:54.874Z,1.58
2023-03-17T09:35:22.801Z,1.60
2023-03-17T09:37:51.531Z,1.77
2023-03-17T09:40:22.595Z,1.48
2023-03-17T09:42:57.985Z,1.50
2023-03-17T09:45:34.681Z,1.60
2023-03-17T09:48:23.580Z,1.50
2023-03-17T09:50:56.710Z,1.70
2023-03-17T09:53:28.259Z,1.38
2023-03-17T09:55:59.811Z,1.92
2023-03-17T09:58:32.942Z,1.80
2023-03-17T10:01:05.216Z,1.75
2023-03-17T10:03:34.397Z,1.85
2023-03-17T10:06:17.359Z,1.63
2023-03-17T10:08:52.417Z,1.80
2023-03-17T10:11:30.457Z,1.48
2023-03-17T10:14:03.336Z,1.70
2023-03-17T10:16:42.882Z,1.50
2023-03-17T10:19:27.068Z,2.05
2023-03-17T10:21:59.642Z,1.80
2023-03-17T10:27:00.327Z,1.60
2023-03-17T10:29:29.017Z,1.52
2023-03-17T10:31:58.971Z,1.60
2023-03-17T10:34:29.708Z,1.70
2023-03-17T10:37:02.181Z,1.67
2023-03-17T10:39:32.751Z,2.20
2023-03-17T10:42:09.668Z,1.73
2023-03-17T10:44:45.039Z,1.80
2023-03-17T10:47:29.751Z,1.92
2023-03-17T10:49:58.670Z,1.48
2023-03-17T10:52:28.850Z,1.85
2023-03-17T10:55:01.881Z,1.40
2023-03-17T10:57:31.140Z,1.67
2023-03-17T11:00:02.456Z,1.52
2023-03-17T11:02:37.322Z,1.63
2023-03-17T11:05:09.475Z,2.10
2023-03-17T11:07:39.455Z,1.85
2023-03-17T11:10:19.309Z,1.70
2023-03-17T11:12:50.341Z,1.92
2023-03-17T11:15:20.194Z,1.48
2023-03-17T11:17:55.907Z,1.42
2023-03-17T11:20:45.810Z,1.65
2023-03-17T11:23:37.000Z,1.65
2023-03-17T11:26:17.479Z,1.55
2023-03-17T11:28:51.179Z,1.58
2023-03-17T11:31:28.527Z,1.35
2023-03-17T11:34:08.650Z,1.50
2023-03-17T11:36:59.711Z,1.30
2023-03-17T11:39:31.255Z,1.67
2023-03-17T11:42:10.591Z,1.50
2023-03-17T11:45:09.628Z,1.40
2023-03-17T11:47:46.802Z,1.55
2023-03-17T11:50:26.533Z,1.65
2023-03-17T11:53:09.810Z,1.30
2023-03-17T11:55:46.216Z,1.58
2023-03-17T11:58:19.657Z,1.25
2023-03-17T12:00:52.525Z,1.30
2023-03-17T12:03:25.782Z,1.33
2023-03-17T12:05:59.460Z,1.30
2023-03-17T12:08:36.146Z,1.60
2023-03-17T12:11:10.540Z,1.45
2023-03-17T12:13:43.069Z,1.38
2023-03-17T12:16:17.377Z,1.63
2023-03-17T12:18:58.206Z,1.30
2023-03-17T12:21:36.864Z,1.50
2023-03-17T12:24:12.661Z,1.50
2023-03-17T12:26:48.532Z,1.42
2023-03-17T12:29:21.976Z,1.20
2023-03-17T12:31:56.232Z,1.50
2023-03-17T12:34:32.923Z,1.40
2023-03-17T12:37:03.520Z,1.30
2023-03-17T12:39:34.602Z,1.40
2023-03-17T12:42:22.410Z,1.50
2023-03-17T12:45:16.374Z,1.52
2023-03-17T12:47:55.439Z,1.33
2023-03-17T12:50:54.957Z,1.73
2023-03-17T12:53:30.458Z,1.35
2023-03-17T12:56:03.632Z,1.70
2023-03-17T12:58:36.789Z,1.35
2023-03-17T13:01:17.333Z,1.60
2023-03-17T13:04:02.248Z,1.50
2023-03-17T13:06:40.177Z,1.80
2023-03-17T13:09:31.519Z,1.33
2023-03-17T13:12:00.367Z,1.35
2023-03-17T13:14:41.807Z,1.10
2023-03-17T13:17:34.229Z,1.20
2023-03-17T13:20:14.484Z,1.30
2023-03-17T13:23:01.535Z,1.48
2023-03-17T13:25:35.065Z,1.20
2023-03-17T13:28:27.944Z,1.60
2023-03-17T13:31:12.359Z,1.33
2023-03-17T13:33:46.701Z,1.20
2023-03-17T13:36:31.523Z,1.52
2023-03-17T13:39:22.961Z,1.65
2023-03-17T13:42:17.745Z,1.25
2023-03-17T13:45:33.419Z,1.40
2023-03-17T13:48:32.982Z,1.30
2023-03-17T13:51:04.041Z,1.10
2023-03-17T13:53:37.360Z,1.20
2023-03-17T13:56:12.062Z,1.10
2023-03-17T13:58:54.042Z,1.15
2023-03-17T14:01:23.784Z,1.30
2023-03-17T14:03:54.022Z,1.10
2023-03-17T14:06:28.005Z,1.10
2023-03-17T14:09:00.372Z,1.50
2023-03-17T14:14:31.206Z,1.40
2023-03-17T14:17:06.102Z,1.20
2023-03-17T14:19:33.981Z,1.40
2023-03-17T14:22:19.294Z,1.30
2023-03-17T14:24:51.628Z,1.30
2023-03-17T14:27:19.766Z,1.00
2023-03-17T14:29:49.052Z,1.40
2023-03-17T14:32:19.738Z,1.30
2023-03-17T14:34:52.906Z,1.30
2023-03-17T14:37:21.336Z,1.15
2023-03-17T14:39:52.203Z,1.30
2023-03-17T14:42:26.850Z,1.40
2023-03-17T14:45:03.659Z,1.45
2023-03-17T14:47:37.929Z,1.40
2023-03-17T14:50:15.035Z,1.23
2023-03-17T14:52:43.039Z,1.30
2023-03-17T14:55:15.901Z,1.10
2023-03-17T14:57:49.241Z,1.27
2023-03-17T15:00:31.773Z,1.00
2023-03-17T15:03:02.259Z,1.40
2023-03-17T15:05:38.311Z,0.95
2023-03-17T15:08:40.979Z,1.10
2023-03-17T15:11:09.676Z,1.13
2023-03-17T15:13:39.055Z,1.13
2023-03-17T15:16:18.629Z,1.10
2023-03-17T15:18:47.236Z,1.40
2023-03-17T15:21:30.647Z,1.02
2023-03-17T15:23:58.482Z,1.27
2023-03-17T15:26:32.118Z,1.40
2023-03-17T15:29:01.072Z,1.17
2023-03-17T15:31:30.703Z,1.48
2023-03-17T15:33:59.690Z,1.10
2023-03-17T15:36:32.648Z,1.02
2023-03-17T15:39:01.639Z,1.13
2023-03-17T15:41:29.436Z,1.35
2023-03-17T15:43:57.250Z,1.30
2023-03-17T15:46:32.207Z,1.13
2023-03-17T15:49:01.548Z,1.10
2023-03-17T15:51:29.357Z,1.05
2023-03-17T15:53:57.303Z,1.25
2023-03-17T15:56:25.963Z,1.27
2023-03-17T15:58:53.976Z,1.20
2023-03-17T16:01:22.081Z,1.20
2023-03-17T16:03:50.509Z,1.35
2023-03-17T16:06:22.368Z,1.10
2023-03-17T16:08:51.173Z,1.27
2023-03-17T16:11:22.759Z,1.20
2023-03-17T16:13:50.579Z,1.57
2023-03-17T16:16:22.627Z,1.10
2023-03-17T16:18:52.495Z,1.20
2023-03-17T16:21:22.325Z,1.35
2023-03-17T16:23:50.627Z,1.63
2023-03-17T16:26:18.659Z,1.60
2023-03-17T16:28:47.661Z,1.30
2023-03-17T16:31:22.390Z,1.23
2023-03-17T16:33:51.488Z,1.23
2023-03-17T16:36:23.880Z,1.00
2023-03-17T16:38:52.129Z,1.23
2023-03-17T16:41:22.791Z,1.52
2023-03-17T16:43:53.643Z,1.30
2023-03-17T16:46:22.688Z,1.30
2023-03-17T16:48:51.506Z,1.27
2023-03-17T16:51:20.102Z,1.27
2023-03-17T16:53:49.287Z,1.42
2023-03-17T16:56:19.975Z,1.20
2023-03-17T16:58:49.131Z,1.20
2023-03-17T17:01:20.916Z,1.30
2023-03-17T17:03:49.634Z,1.55
2023-03-17T17:06:19.364Z,1.60
2023-03-17T17:08:50.295Z,1.42
2023-03-17T17:11:19.879Z,1.63
2023-03-17T17:13:49.015Z,1.55
2023-03-17T17:16:22.724Z,2.60
2023-03-17T17:18:50.911Z,1.98
2023-03-17T17:21:18.721Z,1.90
2023-03-17T17:23:46.562Z,1.45
2023-03-17T17:26:16.410Z,2.10
2023-03-17T17:28:44.244Z,7.28
2023-03-17T17:31:12.291Z,2.70
2023-03-17T17:33:41.229Z,3.40
2023-03-17T17:36:14.481Z,2.17
2023-03-17T17:38:42.899Z,2.30
2023-03-17T17:41:12.286Z,2.30
2023-03-17T17:43:42.044Z,1.75
2023-03-17T17:46:13.526Z,2.10
2023-03-17T17:48:41.332Z,3.50
2023-03-17T17:51:09.114Z,4.13
2023-03-17T17:53:37.149Z,3.85
2023-03-17T17:56:05.735Z,3.20
2023-03-17T17:58:33.631Z,3.10
2023-03-17T18:01:04.725Z,2.25
2023-03-17T18:03:32.598Z,2.78
2023-03-17T18:06:01.368Z,2.00
2023-03-17T18:08:29.425Z,2.00
2023-03-17T18:10:57.300Z,2.28
2023-03-17T18:13:25.294Z,2.40
2023-03-17T18:15:53.157Z,2.25
2023-03-17T18:18:22.264Z,1.90
2023-03-17T18:20:50.836Z,1.65
2023-03-17T18:23:20.165Z,1.55
2023-03-17T18:25:48.151Z,1.73
2023-03-17T18:28:16.259Z,1.60
2023-03-17T18:30:45.515Z,1.40
2023-03-17T18:33:17.431Z,1.70
2023-03-17T18:35:48.665Z,1.40
2023-03-17T18:38:16.850Z,1.55
2023-03-17T18:40:45.027Z,1.35
2023-03-17T18:43:12.852Z,1.70
2023-03-17T18:45:40.656Z,1.90
2023-03-17T18:48:08.526Z,1.40
2023-03-17T18:50:37.001Z,1.50
2023-03-17T18:53:06.140Z,1.50
2023-03-17T18:55:33.935Z,1.38
2023-03-17T18:58:01.926Z,2.22
2023-03-17T19:00:30.020Z,1.52
2023-03-17T19:02:58.033Z,1.58
2023-03-17T19:05:26.558Z,2.55
2023-03-17T19:07:54.310Z,1.90
2023-03-17T19:10:23.492Z,2.00
2023-03-17T19:12:52.124Z,1.90
2023-03-17T19:15:20.691Z,1.75
2023-03-17T19:17:50.279Z,1.67
2023-03-17T19:20:18.794Z,1.60
2023-03-17T19:22:46.665Z,1.73
2023-03-17T19:25:14.493Z,1.25
2023-03-17T19:27:43.623Z,2.00
2023-03-17T19:30:13.024Z,2.30
2023-03-17T19:32:41.304Z,2.00
2023-03-17T19:35:09.750Z,2.08
2023-03-17T19:37:38.139Z,1.90
2023-03-17T19:40:08.451Z,2.30
2023-03-17T19:42:36.421Z,3.22
2023-03-17T19:45:06.835Z,4.20
2023-03-17T19:47:34.738Z,2.70
2023-03-17T19:50:02.690Z,3.20
2023-03-17T19:52:30.481Z,3.92
2023-03-17T19:54:58.561Z,3.60
2023-03-17T19:57:26.456Z,3.20
2023-03-17T19:59:54.252Z,3.05
2023-03-17T20:02:23.476Z,2.80
2023-03-17T20:04:51.404Z,3.13
2023-03-17T20:07:19.335Z,3.45
2023-03-17T20:09:48.499Z,2.88
2023-03-17T20:12:16.466Z,2.70
2023-03-17T20:14:44.281Z,2.90
2023-03-17T20:17:12.240Z,2.70
2023-03-17T20:19:41.443Z,3.00
2023-03-17T20:22:09.241Z,3.28
2023-03-17T20:24:38.263Z,3.13
2023-03-17T20:27:07.960Z,3.17
2023-03-17T20:29:35.854Z,3.03
2023-03-17T20:32:04.714Z,3.42
2023-03-17T20:34:34.579Z,3.67
2023-03-17T20:37:04.269Z,3.63
2023-03-17T20:39:32.463Z,3.65
2023-03-17T20:42:01.525Z,4.65
2023-03-17T20:44:29.346Z,7.50
2023-03-17T20:46:57.780Z,5.78
2023-03-17T20:49:25.716Z,5.95
2023-03-17T20:51:53.503Z,5.97
2023-03-17T20:54:23.272Z,7.45
2023-03-17T20:56:53.599Z,7.95
2023-03-17T20:59:21.452Z,5.05
2023-03-17T21:01:49.894Z,4.65
2023-03-17T21:04:18.070Z,4.18
2023-03-17T21:06:45.922Z,3.90
2023-03-17T21:09:14.033Z,3.40
2023-03-17T21:11:43.264Z,4.10
2023-03-17T21:14:13.935Z,4.05
2023-03-17T21:16:44.780Z,3.63
2023-03-17T21:19:15.403Z,3.72
2023-03-17T21:21:43.205Z,3.70
2023-03-17T21:24:27.379Z,3.45
2023-03-17T21:26:56.587Z,3.20
2023-03-17T21:29:24.465Z,3.00
2023-03-17T21:31:52.596Z,3.58
2023-03-17T21:34:20.472Z,3.80
2023-03-17T21:36:48.374Z,3.45
2023-03-17T21:39:16.585Z,3.75
2023-03-17T21:41:46.205Z,3.03
2023-03-17T21:44:17.685Z,2.88
2023-03-17T21:46:46.292Z,3.00
2023-03-17T21:49:16.097Z,3.03
2023-03-17T21:51:44.318Z,3.15
2023-03-17T21:54:12.354Z,3.22
2023-03-17T21:56:41.360Z,3.05
2023-03-17T21:59:10.966Z,3.45
2023-03-17T22:01:40.513Z,3.08
2023-03-17T22:04:09.172Z,3.50
2023-03-17T22:06:37.000Z,2.35
2023-03-17T22:09:05.279Z,2.58
2023-03-17T22:11:33.010Z,2.15
2023-03-17T22:14:01.885Z,2.53
2023-03-17T22:16:30.073Z,2.67
2023-03-17T22:18:59.276Z,2.70
2023-03-17T22:21:28.874Z,2.67
2023-03-17T22:23:56.731Z,2.67
2023-03-17T22:26:24.448Z,2.63
2023-03-17T22:28:52.294Z,2.95
2023-03-17T22:31:22.558Z,2.95
2023-03-17T22:33:52.329Z,3.22
2023-03-17T22:36:22.078Z,3.00
2023-03-17T22:38:50.309Z,2.83
2023-03-17T22:41:20.580Z,3.30
2023-03-17T22:43:48.490Z,2.85
2023-03-17T22:46:16.851Z,3.08
2023-03-17T22:48:46.093Z,2.70
2023-03-17T22:51:16.418Z,2.50
2023-03-17T22:53:46.208Z,2.20
2023-03-17T22:56:15.829Z,2.33
2023-03-17T22:58:44.638Z,3.00
2023-03-17T23:01:13.994Z,2.70
2023-03-17T23:06:37.960Z,2.97
2023-03-17T23:09:05.869Z,3.15
2023-03-17T23:11:33.692Z,3.85
2023-03-17T23:14:01.532Z,3.75
2023-03-17T23:16:30.097Z,3.58
2023-03-17T23:18:57.968Z,4.22
2023-03-17T23:21:30.142Z,4.05
2023-03-17T23:23:59.602Z,3.10
2023-03-17T23:26:28.248Z,3.50
2023-03-17T23:28:56.077Z,3.25
2023-03-17T23:31:24.724Z,3.38
2023-03-17T23:33:52.638Z,3.33
2023-03-17T23:36:21.382Z,3.03
2023-03-17T23:38:50.253Z,3.45
2023-03-17T23:41:19.956Z,3.10
2023-03-17T23:43:47.713Z,2.97
2023-03-17T23:46:15.562Z,2.55
2023-03-17T23:48:44.510Z,2.78
2023-03-17T23:51:14.262Z,2.60
2023-03-17T23:53:42.935Z,2.90
2023-03-17T23:56:12.983Z,3.40
2023-03-17T23:58:43.334Z,2.67
